sensor_id;sensor_type;location;lat;lon;timestamp;temperature;humidity
68051;DHT22;54839;51.364;7.246;2023-07-31T00:00:47;15.20;99.90
68051;DHT22;54839;51.364;7.246;2023-07-31T00:03:13;15.20;99.90
68051;DHT22;54839;51.364;7.246;2023-07-31T00:05:39;15.20;99.90
68051;DHT22;54839;51.364;7.246;2023-07-31T00:08:04;15.20;99.90
68051;DHT22;54839;51.364;7.246;2023-07-31T00:10:33;15.30;99.90
68051;DHT22;54839;51.364;7.246;2023-07-31T00:12:59;15.20;99.90
68051;DHT22;54839;51.364;7.246;2023-07-31T00:15:24;15.30;99.90
68051;DHT22;54839;51.364;7.246;2023-07-31T00:17:50;15.20;99.90
68051;DHT22;54839;51.364;7.246;2023-07-31T00:20:16;15.30;99.90
68051;DHT22;54839;51.364;7.246;2023-07-31T00:22:41;15.30;99.90
68051;DHT22;54839;51.364;7.246;2023-07-31T00:25:07;15.30;99.90
68051;DHT22;54839;51.364;7.246;2023-07-31T00:27:33;15.30;99.90
68051;DHT22;54839;51.364;7.246;2023-07-31T00:29:59;15.20;99.90
68051;DHT22;54839;51.364;7.246;2023-07-31T00:32:24;15.30;99.90
68051;DHT22;54839;51.364;7.246;2023-07-31T00:34:50;15.30;99.90
68051;DHT22;54839;51.364;7.246;2023-07-31T00:37:16;15.30;99.90
68051;DHT22;54839;51.364;7.246;2023-07-31T00:39:41;15.30;99.90
68051;DHT22;54839;51.364;7.246;2023-07-31T00:42:07;15.30;99.90
68051;DHT22;54839;51.364;7.246;2023-07-31T00:44:33;15.30;99.90
68051;DHT22;54839;51.364;7.246;2023-07-31T00:46:59;15.30;99.90
68051;DHT22;54839;51.364;7.246;2023-07-31T00:49:25;15.30;99.90
68051;DHT22;54839;51.364;7.246;2023-07-31T00:51:52;15.40;99.90
68051;DHT22;54839;51.364;7.246;2023-07-31T00:54:18;15.30;99.90
68051;DHT22;54839;51.364;7.246;2023-07-31T00:56:45;15.30;99.90
68051;DHT22;54839;51.364;7.246;2023-07-31T00:59:11;15.40;99.90
68051;DHT22;54839;51.364;7.246;2023-07-31T01:01:37;15.20;99.90
68051;DHT22;54839;51.364;7.246;2023-07-31T01:04:04;15.30;99.90
68051;DHT22;54839;51.364;7.246;2023-07-31T01:07:01;15.40;99.90
68051;DHT22;54839;51.364;7.246;2023-07-31T01:09:47;15.50;99.90
68051;DHT22;54839;51.364;7.246;2023-07-31T01:12:17;15.50;99.90
68051;DHT22;54839;51.364;7.246;2023-07-31T01:15:04;15.50;99.90
68051;DHT22;54839;51.364;7.246;2023-07-31T01:17:30;15.50;99.90
68051;DHT22;54839;51.364;7.246;2023-07-31T01:20:00;15.60;99.90
68051;DHT22;54839;51.364;7.246;2023-07-31T01:22:49;15.50;99.90
68051;DHT22;54839;51.364;7.246;2023-07-31T01:28:02;15.60;99.90
68051;DHT22;54839;51.364;7.246;2023-07-31T01:30:32;15.50;99.90
68051;DHT22;54839;51.364;7.246;2023-07-31T01:33:03;15.60;99.90
68051;DHT22;54839;51.364;7.246;2023-07-31T01:35:35;15.50;99.90
68051;DHT22;54839;51.364;7.246;2023-07-31T01:38:01;15.60;99.90
68051;DHT22;54839;51.364;7.246;2023-07-31T01:40:27;15.70;99.90
68051;DHT22;54839;51.364;7.246;2023-07-31T01:42:52;15.80;99.90
68051;DHT22;54839;51.364;7.246;2023-07-31T01:45:18;15.80;99.90
68051;DHT22;54839;51.364;7.246;2023-07-31T01:47:44;15.80;99.90
68051;DHT22;54839;51.364;7.246;2023-07-31T01:50:09;15.80;99.90
68051;DHT22;54839;51.364;7.246;2023-07-31T01:52:35;15.80;99.90
68051;DHT22;54839;51.364;7.246;2023-07-31T01:55:01;15.80;99.90
68051;DHT22;54839;51.364;7.246;2023-07-31T01:57:26;15.80;99.90
68051;DHT22;54839;51.364;7.246;2023-07-31T01:59:52;15.80;99.90
68051;DHT22;54839;51.364;7.246;2023-07-31T02:02:19;15.80;99.90
68051;DHT22;54839;51.364;7.246;2023-07-31T02:04:45;15.90;99.90
68051;DHT22;54839;51.364;7.246;2023-07-31T02:07:10;15.90;99.90
68051;DHT22;54839;51.364;7.246;2023-07-31T02:09:36;15.80;99.90
68051;DHT22;54839;51.364;7.246;2023-07-31T02:12:02;15.90;99.90
68051;DHT22;54839;51.364;7.246;2023-07-31T02:14:27;15.90;99.90
68051;DHT22;54839;51.364;7.246;2023-07-31T02:16:53;15.90;99.90
68051;DHT22;54839;51.364;7.246;2023-07-31T02:19:19;15.80;99.90
68051;DHT22;54839;51.364;7.246;2023-07-31T02:21:44;15.80;99.90
68051;DHT22;54839;51.364;7.246;2023-07-31T02:24:10;15.80;99.90
68051;DHT22;54839;51.364;7.246;2023-07-31T02:26:35;15.80;99.90
68051;DHT22;54839;51.364;7.246;2023-07-31T02:29:01;15.80;99.90
68051;DHT22;54839;51.364;7.246;2023-07-31T02:31:27;15.80;99.90
68051;DHT22;54839;51.364;7.246;2023-07-31T02:33:52;16.00;99.90
68051;DHT22;54839;51.364;7.246;2023-07-31T02:36:18;15.80;99.90
68051;DHT22;54839;51.364;7.246;2023-07-31T02:38:44;15.80;99.90
68051;DHT22;54839;51.364;7.246;2023-07-31T02:41:10;15.70;99.90
68051;DHT22;54839;51.364;7.246;2023-07-31T02:43:36;15.80;99.90
68051;DHT22;54839;51.364;7.246;2023-07-31T02:46:01;15.80;99.90
68051;DHT22;54839;51.364;7.246;2023-07-31T02:48:27;15.80;99.90
68051;DHT22;54839;51.364;7.246;2023-07-31T02:50:53;15.80;99.90
68051;DHT22;54839;51.364;7.246;2023-07-31T02:53:19;15.80;99.90
68051;DHT22;54839;51.364;7.246;2023-07-31T02:55:44;15.90;99.90
68051;DHT22;54839;51.364;7.246;2023-07-31T02:58:10;15.80;99.90
68051;DHT22;54839;51.364;7.246;2023-07-31T03:00:36;15.90;99.90
68051;DHT22;54839;51.364;7.246;2023-07-31T03:03:01;15.90;99.90
68051;DHT22;54839;51.364;7.246;2023-07-31T03:05:27;15.90;99.90
68051;DHT22;54839;51.364;7.246;2023-07-31T03:07:52;16.00;99.90
68051;DHT22;54839;51.364;7.246;2023-07-31T03:10:18;15.80;99.90
68051;DHT22;54839;51.364;7.246;2023-07-31T03:12:46;16.00;99.90
68051;DHT22;54839;51.364;7.246;2023-07-31T03:15:13;15.90;99.90
68051;DHT22;54839;51.364;7.246;2023-07-31T03:17:39;16.00;99.90
68051;DHT22;54839;51.364;7.246;2023-07-31T03:20:05;15.90;99.90
68051;DHT22;54839;51.364;7.246;2023-07-31T03:22:30;16.00;99.90
68051;DHT22;54839;51.364;7.246;2023-07-31T03:24:56;16.00;99.90
68051;DHT22;54839;51.364;7.246;2023-07-31T03:27:22;16.00;99.90
68051;DHT22;54839;51.364;7.246;2023-07-31T03:29:47;16.00;99.90
68051;DHT22;54839;51.364;7.246;2023-07-31T03:32:15;16.00;99.90
68051;DHT22;54839;51.364;7.246;2023-07-31T03:34:40;16.00;99.90
68051;DHT22;54839;51.364;7.246;2023-07-31T03:37:06;16.10;99.90
68051;DHT22;54839;51.364;7.246;2023-07-31T03:39:31;16.10;99.90
68051;DHT22;54839;51.364;7.246;2023-07-31T03:41:57;16.10;99.90
68051;DHT22;54839;51.364;7.246;2023-07-31T03:44:23;16.10;99.90
68051;DHT22;54839;51.364;7.246;2023-07-31T03:46:48;16.10;99.90
68051;DHT22;54839;51.364;7.246;2023-07-31T03:49:14;16.30;99.90
68051;DHT22;54839;51.364;7.246;2023-07-31T03:51:39;16.10;99.90
68051;DHT22;54839;51.364;7.246;2023-07-31T03:54:05;16.20;99.90
68051;DHT22;54839;51.364;7.246;2023-07-31T03:56:33;16.10;99.90
68051;DHT22;54839;51.364;7.246;2023-07-31T03:58:58;16.20;99.90
68051;DHT22;54839;51.364;7.246;2023-07-31T04:01:24;16.30;99.90
68051;DHT22;54839;51.364;7.246;2023-07-31T04:03:50;16.20;99.90
68051;DHT22;54839;51.364;7.246;2023-07-31T04:06:15;16.20;99.90
68051;DHT22;54839;51.364;7.246;2023-07-31T04:08:44;16.20;99.90
68051;DHT22;54839;51.364;7.246;2023-07-31T04:11:10;16.20;99.90
68051;DHT22;54839;51.364;7.246;2023-07-31T04:13:37;16.40;99.90
68051;DHT22;54839;51.364;7.246;2023-07-31T04:16:03;16.20;99.90
68051;DHT22;54839;51.364;7.246;2023-07-31T04:18:28;16.20;99.90
68051;DHT22;54839;51.364;7.246;2023-07-31T04:20:56;16.30;99.90
68051;DHT22;54839;51.364;7.246;2023-07-31T04:23:26;16.20;99.90
68051;DHT22;54839;51.364;7.246;2023-07-31T04:25:51;16.30;99.90
68051;DHT22;54839;51.364;7.246;2023-07-31T04:28:17;16.30;99.90
68051;DHT22;54839;51.364;7.246;2023-07-31T04:30:43;16.30;99.90
68051;DHT22;54839;51.364;7.246;2023-07-31T04:33:08;16.20;99.90
68051;DHT22;54839;51.364;7.246;2023-07-31T04:35:34;16.40;99.90
68051;DHT22;54839;51.364;7.246;2023-07-31T04:37:59;16.40;99.90
68051;DHT22;54839;51.364;7.246;2023-07-31T04:40:25;16.30;99.90
68051;DHT22;54839;51.364;7.246;2023-07-31T04:42:51;16.30;99.90
68051;DHT22;54839;51.364;7.246;2023-07-31T04:45:16;16.10;99.90
68051;DHT22;54839;51.364;7.246;2023-07-31T04:47:42;15.90;99.90
68051;DHT22;54839;51.364;7.246;2023-07-31T04:50:08;15.90;99.90
68051;DHT22;54839;51.364;7.246;2023-07-31T04:52:34;15.80;99.90
68051;DHT22;54839;51.364;7.246;2023-07-31T04:54:59;15.80;99.90
68051;DHT22;54839;51.364;7.246;2023-07-31T04:57:25;15.70;99.90
68051;DHT22;54839;51.364;7.246;2023-07-31T04:59:50;15.80;99.90
68051;DHT22;54839;51.364;7.246;2023-07-31T05:02:16;15.80;99.90
68051;DHT22;54839;51.364;7.246;2023-07-31T05:04:42;15.90;99.90
68051;DHT22;54839;51.364;7.246;2023-07-31T05:07:07;15.80;99.90
68051;DHT22;54839;51.364;7.246;2023-07-31T05:09:33;16.00;99.90
68051;DHT22;54839;51.364;7.246;2023-07-31T05:11:59;16.00;99.90
68051;DHT22;54839;51.364;7.246;2023-07-31T05:14:25;16.00;99.90
68051;DHT22;54839;51.364;7.246;2023-07-31T05:16:51;16.10;99.90
68051;DHT22;54839;51.364;7.246;2023-07-31T05:19:17;16.30;99.90
68051;DHT22;54839;51.364;7.246;2023-07-31T05:21:43;16.50;99.90
68051;DHT22;54839;51.364;7.246;2023-07-31T05:24:09;16.40;99.90
68051;DHT22;54839;51.364;7.246;2023-07-31T05:26:35;16.60;99.90
68051;DHT22;54839;51.364;7.246;2023-07-31T05:29:00;16.50;99.90
68051;DHT22;54839;51.364;7.246;2023-07-31T05:31:26;16.60;99.90
68051;DHT22;54839;51.364;7.246;2023-07-31T05:33:52;16.60;99.90
68051;DHT22;54839;51.364;7.246;2023-07-31T05:36:17;16.70;99.90
68051;DHT22;54839;51.364;7.246;2023-07-31T05:38:43;16.70;99.90
68051;DHT22;54839;51.364;7.246;2023-07-31T05:41:12;16.70;99.90
68051;DHT22;54839;51.364;7.246;2023-07-31T05:43:38;16.70;99.90
68051;DHT22;54839;51.364;7.246;2023-07-31T05:46:03;16.70;99.90
68051;DHT22;54839;51.364;7.246;2023-07-31T05:48:29;16.70;99.90
68051;DHT22;54839;51.364;7.246;2023-07-31T05:50:55;16.70;99.90
68051;DHT22;54839;51.364;7.246;2023-07-31T05:53:20;16.70;99.90
68051;DHT22;54839;51.364;7.246;2023-07-31T05:55:46;16.70;99.90
68051;DHT22;54839;51.364;7.246;2023-07-31T05:58:12;16.80;99.90
68051;DHT22;54839;51.364;7.246;2023-07-31T06:00:37;16.70;99.90
68051;DHT22;54839;51.364;7.246;2023-07-31T06:03:03;16.80;99.90
68051;DHT22;54839;51.364;7.246;2023-07-31T06:05:29;16.90;99.90
68051;DHT22;54839;51.364;7.246;2023-07-31T06:07:55;16.80;99.90
68051;DHT22;54839;51.364;7.246;2023-07-31T06:10:21;17.00;99.90
68051;DHT22;54839;51.364;7.246;2023-07-31T06:12:47;16.80;99.90
68051;DHT22;54839;51.364;7.246;2023-07-31T06:15:12;16.80;99.90
68051;DHT22;54839;51.364;7.246;2023-07-31T06:17:38;16.80;99.90
68051;DHT22;54839;51.364;7.246;2023-07-31T06:20:05;16.90;99.90
68051;DHT22;54839;51.364;7.246;2023-07-31T06:22:31;17.00;99.90
68051;DHT22;54839;51.364;7.246;2023-07-31T06:24:57;17.00;99.90
68051;DHT22;54839;51.364;7.246;2023-07-31T06:27:23;17.10;99.90
68051;DHT22;54839;51.364;7.246;2023-07-31T06:29:49;17.00;99.90
68051;DHT22;54839;51.364;7.246;2023-07-31T06:32:14;17.10;99.90
68051;DHT22;54839;51.364;7.246;2023-07-31T06:34:40;16.90;99.90
68051;DHT22;54839;51.364;7.246;2023-07-31T06:37:06;16.70;99.90
68051;DHT22;54839;51.364;7.246;2023-07-31T06:39:31;16.60;99.90
68051;DHT22;54839;51.364;7.246;2023-07-31T06:41:57;16.70;99.90
68051;DHT22;54839;51.364;7.246;2023-07-31T06:44:23;16.70;99.90
68051;DHT22;54839;51.364;7.246;2023-07-31T06:46:48;16.60;99.90
68051;DHT22;54839;51.364;7.246;2023-07-31T06:49:14;16.60;99.90
68051;DHT22;54839;51.364;7.246;2023-07-31T06:51:43;16.70;99.90
68051;DHT22;54839;51.364;7.246;2023-07-31T06:54:09;16.60;99.90
68051;DHT22;54839;51.364;7.246;2023-07-31T06:56:35;16.50;99.90
68051;DHT22;54839;51.364;7.246;2023-07-31T06:59:01;16.40;99.90
68051;DHT22;54839;51.364;7.246;2023-07-31T07:01:26;16.40;99.90
68051;DHT22;54839;51.364;7.246;2023-07-31T07:03:54;16.40;99.90
68051;DHT22;54839;51.364;7.246;2023-07-31T07:06:19;16.50;99.90
68051;DHT22;54839;51.364;7.246;2023-07-31T07:08:45;16.60;99.90
68051;DHT22;54839;51.364;7.246;2023-07-31T07:11:11;16.40;99.90
68051;DHT22;54839;51.364;7.246;2023-07-31T07:13:36;16.40;99.90
68051;DHT22;54839;51.364;7.246;2023-07-31T07:16:02;16.50;99.90
68051;DHT22;54839;51.364;7.246;2023-07-31T07:18:28;16.40;99.90
68051;DHT22;54839;51.364;7.246;2023-07-31T07:20:54;16.50;99.90
68051;DHT22;54839;51.364;7.246;2023-07-31T07:23:20;16.60;99.90
68051;DHT22;54839;51.364;7.246;2023-07-31T07:25:46;16.70;99.90
68051;DHT22;54839;51.364;7.246;2023-07-31T07:28:12;16.50;99.90
68051;DHT22;54839;51.364;7.246;2023-07-31T07:30:38;16.30;99.90
68051;DHT22;54839;51.364;7.246;2023-07-31T07:33:04;16.20;99.90
68051;DHT22;54839;51.364;7.246;2023-07-31T07:35:29;16.10;99.90
68051;DHT22;54839;51.364;7.246;2023-07-31T07:37:55;16.20;99.90
68051;DHT22;54839;51.364;7.246;2023-07-31T07:40:21;16.20;99.90
68051;DHT22;54839;51.364;7.246;2023-07-31T07:42:47;16.10;99.90
68051;DHT22;54839;51.364;7.246;2023-07-31T07:45:13;16.10;99.90
68051;DHT22;54839;51.364;7.246;2023-07-31T07:47:41;16.00;99.90
68051;DHT22;54839;51.364;7.246;2023-07-31T07:50:07;15.90;99.90
68051;DHT22;54839;51.364;7.246;2023-07-31T07:52:33;15.90;99.90
68051;DHT22;54839;51.364;7.246;2023-07-31T07:54:58;16.00;99.90
68051;DHT22;54839;51.364;7.246;2023-07-31T07:57:26;16.00;99.90
68051;DHT22;54839;51.364;7.246;2023-07-31T07:59:51;15.90;99.90
68051;DHT22;54839;51.364;7.246;2023-07-31T08:02:17;16.00;99.90
68051;DHT22;54839;51.364;7.246;2023-07-31T08:04:43;16.20;99.90
68051;DHT22;54839;51.364;7.246;2023-07-31T08:07:11;16.30;99.90
68051;DHT22;54839;51.364;7.246;2023-07-31T08:09:38;16.10;99.90
68051;DHT22;54839;51.364;7.246;2023-07-31T08:12:04;16.10;99.90
68051;DHT22;54839;51.364;7.246;2023-07-31T08:14:30;16.10;99.90
68051;DHT22;54839;51.364;7.246;2023-07-31T08:16:56;16.20;99.90
68051;DHT22;54839;51.364;7.246;2023-07-31T08:19:24;16.10;99.90
68051;DHT22;54839;51.364;7.246;2023-07-31T08:21:50;16.20;99.90
68051;DHT22;54839;51.364;7.246;2023-07-31T08:24:16;16.40;99.90
68051;DHT22;54839;51.364;7.246;2023-07-31T08:26:42;16.50;99.90
68051;DHT22;54839;51.364;7.246;2023-07-31T08:29:07;16.60;99.90
68051;DHT22;54839;51.364;7.246;2023-07-31T08:31:33;16.60;99.90
68051;DHT22;54839;51.364;7.246;2023-07-31T08:34:00;16.70;99.90
68051;DHT22;54839;51.364;7.246;2023-07-31T08:36:26;16.60;99.90
68051;DHT22;54839;51.364;7.246;2023-07-31T08:38:51;16.60;99.90
68051;DHT22;54839;51.364;7.246;2023-07-31T08:41:17;16.80;99.90
68051;DHT22;54839;51.364;7.246;2023-07-31T08:43:45;17.00;99.90
68051;DHT22;54839;51.364;7.246;2023-07-31T08:46:11;16.80;99.90
68051;DHT22;54839;51.364;7.246;2023-07-31T08:48:37;16.80;99.90
68051;DHT22;54839;51.364;7.246;2023-07-31T08:51:06;16.80;99.90
68051;DHT22;54839;51.364;7.246;2023-07-31T08:53:32;16.70;99.90
68051;DHT22;54839;51.364;7.246;2023-07-31T08:55:59;16.80;99.90
68051;DHT22;54839;51.364;7.246;2023-07-31T08:58:25;16.70;99.90
68051;DHT22;54839;51.364;7.246;2023-07-31T09:00:53;16.50;99.90
68051;DHT22;54839;51.364;7.246;2023-07-31T09:03:22;16.50;99.90
68051;DHT22;54839;51.364;7.246;2023-07-31T09:05:50;16.30;99.90
68051;DHT22;54839;51.364;7.246;2023-07-31T09:08:19;16.40;99.90
68051;DHT22;54839;51.364;7.246;2023-07-31T09:10:46;16.30;99.90
68051;DHT22;54839;51.364;7.246;2023-07-31T09:13:13;16.30;99.90
68051;DHT22;54839;51.364;7.246;2023-07-31T09:15:40;16.60;99.90
68051;DHT22;54839;51.364;7.246;2023-07-31T09:18:08;16.90;99.90
68051;DHT22;54839;51.364;7.246;2023-07-31T09:20:34;16.60;99.90
68051;DHT22;54839;51.364;7.246;2023-07-31T09:23:13;16.60;99.90
68051;DHT22;54839;51.364;7.246;2023-07-31T09:25:41;16.40;99.90
68051;DHT22;54839;51.364;7.246;2023-07-31T09:28:09;16.40;99.90
68051;DHT22;54839;51.364;7.246;2023-07-31T09:30:51;16.40;99.90
68051;DHT22;54839;51.364;7.246;2023-07-31T09:33:18;16.30;99.90
68051;DHT22;54839;51.364;7.246;2023-07-31T09:35:44;16.40;99.90
68051;DHT22;54839;51.364;7.246;2023-07-31T09:38:14;16.30;99.90
68051;DHT22;54839;51.364;7.246;2023-07-31T09:40:42;16.30;99.90
68051;DHT22;54839;51.364;7.246;2023-07-31T09:43:18;16.30;99.90
68051;DHT22;54839;51.364;7.246;2023-07-31T09:45:45;16.40;99.90
68051;DHT22;54839;51.364;7.246;2023-07-31T09:48:16;16.40;99.90
68051;DHT22;54839;51.364;7.246;2023-07-31T09:50:44;16.30;99.90
68051;DHT22;54839;51.364;7.246;2023-07-31T09:53:10;16.30;99.90
68051;DHT22;54839;51.364;7.246;2023-07-31T09:55:36;16.30;99.90
68051;DHT22;54839;51.364;7.246;2023-07-31T09:58:07;16.40;99.90
68051;DHT22;54839;51.364;7.246;2023-07-31T10:00:34;16.60;99.90
68051;DHT22;54839;51.364;7.246;2023-07-31T10:03:01;16.70;99.90
68051;DHT22;54839;51.364;7.246;2023-07-31T10:05:50;16.50;99.90
68051;DHT22;54839;51.364;7.246;2023-07-31T10:08:20;16.50;99.90
68051;DHT22;54839;51.364;7.246;2023-07-31T10:10:50;16.60;99.90
68051;DHT22;54839;51.364;7.246;2023-07-31T10:13:16;16.60;99.90
68051;DHT22;54839;51.364;7.246;2023-07-31T10:15:43;16.70;99.90
68051;DHT22;54839;51.364;7.246;2023-07-31T10:18:09;16.90;99.90
68051;DHT22;54839;51.364;7.246;2023-07-31T10:20:36;16.90;99.90
68051;DHT22;54839;51.364;7.246;2023-07-31T10:23:03;16.90;99.90
68051;DHT22;54839;51.364;7.246;2023-07-31T10:25:29;16.90;99.90
68051;DHT22;54839;51.364;7.246;2023-07-31T10:27:55;16.90;99.90
68051;DHT22;54839;51.364;7.246;2023-07-31T10:30:26;16.90;99.90
68051;DHT22;54839;51.364;7.246;2023-07-31T10:33:00;17.00;99.90
68051;DHT22;54839;51.364;7.246;2023-07-31T10:35:27;16.90;99.90
68051;DHT22;54839;51.364;7.246;2023-07-31T10:37:53;16.90;99.90
68051;DHT22;54839;51.364;7.246;2023-07-31T10:40:24;16.80;99.90
68051;DHT22;54839;51.364;7.246;2023-07-31T10:42:52;16.80;99.90
68051;DHT22;54839;51.364;7.246;2023-07-31T10:45:26;16.60;99.90
68051;DHT22;54839;51.364;7.246;2023-07-31T10:48:03;16.60;99.90
68051;DHT22;54839;51.364;7.246;2023-07-31T10:50:30;16.50;99.90
68051;DHT22;54839;51.364;7.246;2023-07-31T10:52:58;16.60;99.90
68051;DHT22;54839;51.364;7.246;2023-07-31T10:55:28;16.40;99.90
68051;DHT22;54839;51.364;7.246;2023-07-31T10:57:55;16.40;99.90
68051;DHT22;54839;51.364;7.246;2023-07-31T11:00:30;16.60;99.90
68051;DHT22;54839;51.364;7.246;2023-07-31T11:03:01;16.50;99.90
68051;DHT22;54839;51.364;7.246;2023-07-31T11:08:30;16.60;99.90
68051;DHT22;54839;51.364;7.246;2023-07-31T11:13:33;17.00;99.90
68051;DHT22;54839;51.364;7.246;2023-07-31T11:16:00;17.10;99.90
68051;DHT22;54839;51.364;7.246;2023-07-31T11:18:28;17.20;99.90
68051;DHT22;54839;51.364;7.246;2023-07-31T11:20:54;17.30;99.90
68051;DHT22;54839;51.364;7.246;2023-07-31T11:23:21;17.30;99.90
68051;DHT22;54839;51.364;7.246;2023-07-31T11:25:47;17.40;99.90
68051;DHT22;54839;51.364;7.246;2023-07-31T11:28:14;17.30;99.90
68051;DHT22;54839;51.364;7.246;2023-07-31T11:30:41;17.20;99.90
68051;DHT22;54839;51.364;7.246;2023-07-31T11:33:08;17.20;99.90
68051;DHT22;54839;51.364;7.246;2023-07-31T11:35:43;17.20;99.90
68051;DHT22;54839;51.364;7.246;2023-07-31T11:38:12;17.40;99.90
68051;DHT22;54839;51.364;7.246;2023-07-31T11:40:44;17.50;99.90
68051;DHT22;54839;51.364;7.246;2023-07-31T11:43:10;17.50;99.90
68051;DHT22;54839;51.364;7.246;2023-07-31T11:45:39;17.30;99.90
68051;DHT22;54839;51.364;7.246;2023-07-31T11:48:05;17.30;99.90
68051;DHT22;54839;51.364;7.246;2023-07-31T11:50:33;17.50;99.90
68051;DHT22;54839;51.364;7.246;2023-07-31T11:53:05;17.50;99.90
68051;DHT22;54839;51.364;7.246;2023-07-31T11:55:33;17.50;99.90
68051;DHT22;54839;51.364;7.246;2023-07-31T11:57:59;17.80;99.90
68051;DHT22;54839;51.364;7.246;2023-07-31T12:00:26;17.90;99.90
68051;DHT22;54839;51.364;7.246;2023-07-31T12:02:53;18.00;99.90
68051;DHT22;54839;51.364;7.246;2023-07-31T12:05:18;18.10;99.90
68051;DHT22;54839;51.364;7.246;2023-07-31T12:07:52;18.30;99.90
68051;DHT22;54839;51.364;7.246;2023-07-31T12:10:29;18.50;99.90
68051;DHT22;54839;51.364;7.246;2023-07-31T12:12:59;18.40;99.90
68051;DHT22;54839;51.364;7.246;2023-07-31T12:20:45;18.60;99.90
68051;DHT22;54839;51.364;7.246;2023-07-31T12:23:15;18.70;99.90
68051;DHT22;54839;51.364;7.246;2023-07-31T12:25:41;18.50;99.90
68051;DHT22;54839;51.364;7.246;2023-07-31T12:28:07;18.40;99.90
68051;DHT22;54839;51.364;7.246;2023-07-31T12:30:37;18.40;99.90
68051;DHT22;54839;51.364;7.246;2023-07-31T12:33:14;18.30;99.90
68051;DHT22;54839;51.364;7.246;2023-07-31T12:35:47;18.20;99.90
68051;DHT22;54839;51.364;7.246;2023-07-31T12:38:16;18.00;99.90
68051;DHT22;54839;51.364;7.246;2023-07-31T12:40:44;18.10;99.90
68051;DHT22;54839;51.364;7.246;2023-07-31T12:43:10;17.90;99.90
68051;DHT22;54839;51.364;7.246;2023-07-31T12:45:36;17.80;99.90
68051;DHT22;54839;51.364;7.246;2023-07-31T12:48:01;17.80;99.90
68051;DHT22;54839;51.364;7.246;2023-07-31T12:50:27;17.80;99.90
68051;DHT22;54839;51.364;7.246;2023-07-31T12:52:57;17.90;99.90
68051;DHT22;54839;51.364;7.246;2023-07-31T12:55:23;18.00;99.90
68051;DHT22;54839;51.364;7.246;2023-07-31T12:57:50;17.90;99.90
68051;DHT22;54839;51.364;7.246;2023-07-31T13:00:16;17.80;99.90
68051;DHT22;54839;51.364;7.246;2023-07-31T13:02:41;18.00;99.90
68051;DHT22;54839;51.364;7.246;2023-07-31T13:05:07;18.20;99.90
68051;DHT22;54839;51.364;7.246;2023-07-31T13:07:33;18.40;99.90
68051;DHT22;54839;51.364;7.246;2023-07-31T13:09:59;18.30;99.90
68051;DHT22;54839;51.364;7.246;2023-07-31T13:12:25;18.00;99.90
68051;DHT22;54839;51.364;7.246;2023-07-31T13:14:51;17.80;99.90
68051;DHT22;54839;51.364;7.246;2023-07-31T13:17:17;17.80;99.90
68051;DHT22;54839;51.364;7.246;2023-07-31T13:19:44;17.80;99.90
68051;DHT22;54839;51.364;7.246;2023-07-31T13:22:09;17.70;99.90
68051;DHT22;54839;51.364;7.246;2023-07-31T13:24:35;17.90;99.90
68051;DHT22;54839;51.364;7.246;2023-07-31T13:27:01;17.90;99.90
68051;DHT22;54839;51.364;7.246;2023-07-31T13:29:27;17.90;99.90
68051;DHT22;54839;51.364;7.246;2023-07-31T13:31:53;17.80;99.90
68051;DHT22;54839;51.364;7.246;2023-07-31T13:34:18;17.80;99.90
68051;DHT22;54839;51.364;7.246;2023-07-31T13:36:44;17.90;99.90
68051;DHT22;54839;51.364;7.246;2023-07-31T13:39:10;17.80;99.90
68051;DHT22;54839;51.364;7.246;2023-07-31T13:41:35;17.80;99.90
68051;DHT22;54839;51.364;7.246;2023-07-31T13:44:01;17.90;99.90
68051;DHT22;54839;51.364;7.246;2023-07-31T13:46:27;17.90;99.90
68051;DHT22;54839;51.364;7.246;2023-07-31T13:48:52;17.90;99.90
68051;DHT22;54839;51.364;7.246;2023-07-31T13:51:21;18.00;99.90
68051;DHT22;54839;51.364;7.246;2023-07-31T13:53:47;18.10;99.90
68051;DHT22;54839;51.364;7.246;2023-07-31T13:56:13;18.10;99.90
68051;DHT22;54839;51.364;7.246;2023-07-31T13:58:39;18.40;99.90
68051;DHT22;54839;51.364;7.246;2023-07-31T14:01:04;18.80;99.90
68051;DHT22;54839;51.364;7.246;2023-07-31T14:03:31;18.60;99.90
68051;DHT22;54839;51.364;7.246;2023-07-31T14:05:57;18.70;99.90
68051;DHT22;54839;51.364;7.246;2023-07-31T14:08:22;18.80;99.90
68051;DHT22;54839;51.364;7.246;2023-07-31T14:10:48;18.70;99.90
68051;DHT22;54839;51.364;7.246;2023-07-31T14:13:14;18.80;99.90
68051;DHT22;54839;51.364;7.246;2023-07-31T14:15:42;18.80;99.90
68051;DHT22;54839;51.364;7.246;2023-07-31T14:18:07;19.10;99.90
68051;DHT22;54839;51.364;7.246;2023-07-31T14:20:33;19.30;99.90
68051;DHT22;54839;51.364;7.246;2023-07-31T14:22:59;19.60;99.90
68051;DHT22;54839;51.364;7.246;2023-07-31T14:25:25;19.60;99.90
68051;DHT22;54839;51.364;7.246;2023-07-31T14:27:50;19.30;99.90
68051;DHT22;54839;51.364;7.246;2023-07-31T14:30:16;19.60;99.90
68051;DHT22;54839;51.364;7.246;2023-07-31T14:32:42;19.60;99.90
68051;DHT22;54839;51.364;7.246;2023-07-31T14:35:08;19.40;99.90
68051;DHT22;54839;51.364;7.246;2023-07-31T14:37:41;19.30;99.90
68051;DHT22;54839;51.364;7.246;2023-07-31T14:40:09;19.10;99.90
68051;DHT22;54839;51.364;7.246;2023-07-31T14:42:35;19.00;99.90
68051;DHT22;54839;51.364;7.246;2023-07-31T14:45:02;18.80;99.90
68051;DHT22;54839;51.364;7.246;2023-07-31T14:47:28;18.90;99.90
68051;DHT22;54839;51.364;7.246;2023-07-31T14:49:54;18.90;99.90
68051;DHT22;54839;51.364;7.246;2023-07-31T14:52:19;18.90;99.90
68051;DHT22;54839;51.364;7.246;2023-07-31T14:54:45;18.80;99.90
68051;DHT22;54839;51.364;7.246;2023-07-31T14:57:11;18.80;99.90
68051;DHT22;54839;51.364;7.246;2023-07-31T14:59:37;18.80;99.90
68051;DHT22;54839;51.364;7.246;2023-07-31T15:02:03;18.90;99.90
68051;DHT22;54839;51.364;7.246;2023-07-31T15:04:29;18.80;99.90
68051;DHT22;54839;51.364;7.246;2023-07-31T15:06:55;18.90;99.90
68051;DHT22;54839;51.364;7.246;2023-07-31T15:09:21;19.10;99.90
68051;DHT22;54839;51.364;7.246;2023-07-31T15:11:47;19.10;99.90
68051;DHT22;54839;51.364;7.246;2023-07-31T15:14:14;19.20;99.90
68051;DHT22;54839;51.364;7.246;2023-07-31T15:16:40;19.50;99.90
68051;DHT22;54839;51.364;7.246;2023-07-31T15:19:06;19.40;99.90
68051;DHT22;54839;51.364;7.246;2023-07-31T15:21:31;19.50;99.90
68051;DHT22;54839;51.364;7.246;2023-07-31T15:23:57;19.40;99.90
68051;DHT22;54839;51.364;7.246;2023-07-31T15:26:22;19.50;99.90
68051;DHT22;54839;51.364;7.246;2023-07-31T15:29:03;19.60;99.90
68051;DHT22;54839;51.364;7.246;2023-07-31T15:31:31;19.50;99.90
68051;DHT22;54839;51.364;7.246;2023-07-31T15:33:57;19.60;99.90
68051;DHT22;54839;51.364;7.246;2023-07-31T15:36:22;19.70;99.90
68051;DHT22;54839;51.364;7.246;2023-07-31T15:38:48;19.70;99.90
68051;DHT22;54839;51.364;7.246;2023-07-31T15:41:19;19.40;99.90